Time,TemperatureF,DewpointF,PressureIn,WindDirection,WindDirectionDegrees,WindSpeedMPH,WindSpeedGustMPH,Humidity,HourlyPrecipIn,Conditions,Clouds,dailyrainin,SolarRadiationWatts/m^2,SoftwareType,DateUTC
2013-07-20 00:09:00,50.2,-99.9,29.84,East,100,2.0,2.0,0,0.00,,,0.01,0,weatherlink.com 1.10,2013-07-20 07:09:00,
2013-07-20 00:24:00,50.1,-99.9,29.84,East,100,2.0,3.0,0,0.00,,,0.00,0,weatherlink.com 1.10,2013-07-20 07:24:00,
2013-07-20 00:39:00,50.1,-99.9,29.84,East,100,0.0,1.0,0,0.00,,,0.00,0,weatherlink.com 1.10,2013-07-20 07:39:00,
2013-07-20 00:54:00,49.8,-99.9,29.84,East,100,1.0,2.0,0,0.00,,,0.00,0,weatherlink.com 1.10,2013-07-20 07:54:00,
2013-07-20 01:09:00,49.6,-99.9,29.84,East,98,0.0,5.0,0,0.00,,,0.00,0,weatherlink.com 1.10,2013-07-20 08:09:00,
2013-07-20 01:24:00,49.8,-99.9,29.84,East,98,0.0,2.0,0,0.00,,,0.00,0,weatherlink.com 1.10,2013-07-20 08:24:00,
2013-07-20 01:39:00,49.9,-99.9,29.84,East,98,0.0,1.0,0,0.00,,,0.00,0,weatherlink.com 1.10,2013-07-20 08:39:00,
2013-07-20 01:54:00,49.3,-99.9,29.83,East,98,1.0,2.0,0,0.00,,,0.00,0,weatherlink.com 1.10,2013-07-20 08:54:00,
2013-07-20 02:09:00,49.9,-99.9,29.84,East,98,0.0,3.0,0,0.00,,,0.00,0,weatherlink.com 1.10,2013-07-20 09:09:00,
2013-07-20 02:24:00,49.8,-99.9,29.83,East,98,1.0,1.0,0,0.00,,,0.00,0,weatherlink.com 1.10,2013-07-20 09:24:00,
2013-07-20 02:39:00,49.4,-99.9,29.83,East,98,1.0,3.0,0,0.00,,,0.00,0,weatherlink.com 1.10,2013-07-20 09:39:00,
2013-07-20 02:54:00,49.2,-99.9,29.83,East,98,0.0,2.0,0,0.00,,,0.00,0,weatherlink.com 1.10,2013-07-20 09:54:00,
2013-07-20 03:10:00,49.0,-99.9,29.82,East,98,1.0,2.0,0,0.00,,,0.00,0,weatherlink.com 1.10,2013-07-20 10:10:00,
2013-07-20 03:25:00,49.1,-99.9,29.82,East,98,0.0,1.0,0,0.00,,,0.00,0,weatherlink.com 1.10,2013-07-20 10:25:00,
2013-07-20 03:40:00,49.0,-99.9,29.82,East,98,0.0,1.0,0,0.00,,,0.00,0,weatherlink.com 1.10,2013-07-20 10:40:00,
2013-07-20 03:55:00,48.7,-99.9,29.82,East,98,1.0,2.0,0,0.00,,,0.00,0,weatherlink.com 1.10,2013-07-20 10:55:00,
2013-07-20 04:10:00,49.1,-48.0,29.82,East,98,0.0,3.0,1,0.00,,,0.00,0,weatherlink.com 1.10,2013-07-20 11:10:00,
2013-07-20 04:25:00,49.1,-48.0,29.81,East,98,0.0,2.0,1,0.00,,,0.00,0,weatherlink.com 1.10,2013-07-20 11:25:00,
2013-07-20 04:40:00,48.9,-48.0,29.81,East,98,0.0,1.0,1,0.00,,,0.00,0,weatherlink.com 1.10,2013-07-20 11:40:00,
2013-07-20 04:55:00,48.5,-49.0,29.82,East,98,0.0,0.0,1,0.00,,,0.00,0,weatherlink.com 1.10,2013-07-20 11:55:00,
2013-07-20 05:10:00,49.1,-48.0,29.81,East,98,0.0,2.0,1,0.00,,,0.00,0,weatherlink.com 1.10,2013-07-20 12:10:00,
2013-07-20 05:25:00,49.6,-48.0,29.82,East,98,0.0,1.0,1,0.00,,,0.00,0,weatherlink.com 1.10,2013-07-20 12:25:00,
2013-07-20 05:40:00,49.5,-48.0,29.81,East,98,0.0,1.0,1,0.00,,,0.00,0,weatherlink.com 1.10,2013-07-20 12:40:00,
2013-07-20 05:55:00,49.9,-48.0,29.82,East,98,0.0,1.0,1,0.00,,,0.00,0,weatherlink.com 1.10,2013-07-20 12:55:00,
2013-07-20 06:10:00,48.7,-49.0,29.82,East,98,0.0,0.0,1,0.00,,,0.00,5,weatherlink.com 1.10,2013-07-20 13:10:00,
2013-07-20 06:25:00,49.4,-48.0,29.82,East,98,0.0,0.0,1,0.00,,,0.00,7,weatherlink.com 1.10,2013-07-20 13:25:00,
2013-07-20 06:41:00,50.2,-48.0,29.83,North,355,3.0,4.0,1,0.00,,,0.00,12,weatherlink.com 1.10,2013-07-20 13:41:00,
2013-07-20 06:56:00,51.0,-47.0,29.84,ENE,67,1.0,2.0,1,0.00,,,0.00,23,weatherlink.com 1.10,2013-07-20 13:56:00,
2013-07-20 07:11:00,51.4,-47.0,29.84,SE,145,0.0,3.0,1,0.00,,,0.00,49,weatherlink.com 1.10,2013-07-20 14:11:00,
2013-07-20 07:26:00,52.1,-35.0,29.84,SE,144,0.0,4.0,2,0.00,,,0.00,54,weatherlink.com 1.10,2013-07-20 14:26:00,
2013-07-20 07:41:00,52.3,-34.0,29.84,SSE,161,2.0,3.0,2,0.00,,,0.00,84,weatherlink.com 1.10,2013-07-20 14:41:00,
2013-07-20 07:56:00,52.4,-46.0,29.85,South,185,0.0,6.0,1,0.00,,,0.00,72,weatherlink.com 1.10,2013-07-20 14:56:00,
2013-07-20 08:11:00,52.4,-46.0,29.85,South,184,3.0,3.0,1,0.00,,,0.00,102,weatherlink.com 1.10,2013-07-20 15:11:00,
2013-07-20 08:26:00,52.3,-46.0,29.86,WSW,238,3.0,4.0,1,0.00,,,0.00,132,weatherlink.com 1.10,2013-07-20 15:26:00,
2013-07-20 08:41:00,52.1,-46.0,29.86,SW,233,2.0,4.0,1,0.00,,,0.00,190,weatherlink.com 1.10,2013-07-20 15:41:00,
2013-07-20 08:56:00,52.4,-34.0,29.86,SW,223,3.0,4.0,2,0.00,,,0.00,174,weatherlink.com 1.10,2013-07-20 15:56:00,
2013-07-20 09:11:00,52.2,-35.0,29.86,SW,223,2.0,4.0,2,0.00,,,0.00,183,weatherlink.com 1.10,2013-07-20 16:11:00,
2013-07-20 09:26:00,52.2,-35.0,29.86,SW,223,3.0,4.0,2,0.00,,,0.00,218,weatherlink.com 1.10,2013-07-20 16:26:00,
2013-07-20 09:41:00,52.8,-34.0,29.86,SW,217,2.0,5.0,2,0.00,,,0.00,248,weatherlink.com 1.10,2013-07-20 16:41:00,
2013-07-20 09:56:00,53.4,-34.0,29.86,SSW,192,4.0,5.0,2,0.00,,,0.00,302,weatherlink.com 1.10,2013-07-20 16:56:00,
2013-07-20 10:12:00,54.6,-45.0,29.86,SSE,159,4.0,5.0,1,0.00,,,0.00,360,weatherlink.com 1.10,2013-07-20 17:12:00,
2013-07-20 10:27:00,56.2,-99.9,29.85,SE,131,1.0,6.0,0,0.00,,,0.00,705,weatherlink.com 1.10,2013-07-20 17:27:00,
2013-07-20 10:42:00,57.7,-99.9,29.85,South,175,6.0,8.0,0,0.00,,,0.00,561,weatherlink.com 1.10,2013-07-20 17:42:00,
2013-07-20 10:57:00,58.3,-99.9,29.85,South,176,5.0,7.0,0,0.00,,,0.00,508,weatherlink.com 1.10,2013-07-20 17:57:00,
2013-07-20 11:12:00,59.4,-99.9,29.85,SSE,152,3.0,9.0,0,0.00,,,0.00,612,weatherlink.com 1.10,2013-07-20 18:12:00,
2013-07-20 11:42:00,61.3,-99.9,29.84,South,172,8.0,8.0,0,0.00,,,0.00,821,weatherlink.com 1.10,2013-07-20 18:42:00,
2013-07-20 12:12:00,61.8,-10.0,29.84,SSW,194,7.0,10.0,5,0.00,,,0.00,1113,weatherlink.com 1.10,2013-07-20 19:12:00,
2013-07-20 12:27:00,62.3,-6.0,29.84,SSE,159,2.0,8.0,6,0.00,,,0.00,976,weatherlink.com 1.10,2013-07-20 19:27:00,
2013-07-20 12:42:00,63.2,3.0,29.83,SE,138,6.0,9.0,9,0.00,,,0.00,976,weatherlink.com 1.10,2013-07-20 19:42:00,
2013-07-20 12:57:00,64.2,18.0,29.83,South,176,6.0,11.0,17,0.00,,,0.00,981,weatherlink.com 1.10,2013-07-20 19:57:00,
2013-07-20 13:12:00,64.0,19.0,29.82,SSE,161,4.0,10.0,18,0.00,,,0.00,983,weatherlink.com 1.10,2013-07-20 20:12:00,
2013-07-20 13:27:00,64.1,17.0,29.82,SSE,162,2.0,7.0,16,0.00,,,0.00,984,weatherlink.com 1.10,2013-07-20 20:27:00,
2013-07-20 13:43:00,63.6,26.0,29.82,SSW,208,3.0,7.0,24,0.00,,,0.00,981,weatherlink.com 1.10,2013-07-20 20:43:00,
2013-07-20 13:58:00,64.3,18.0,29.82,SSW,196,3.0,6.0,17,0.00,,,0.00,967,weatherlink.com 1.10,2013-07-20 20:58:00,
2013-07-20 14:13:00,63.6,25.0,29.82,West,268,1.0,7.0,23,0.00,,,0.00,958,weatherlink.com 1.10,2013-07-20 21:13:00,
2013-07-20 14:28:00,63.2,17.0,29.80,South,184,4.0,6.0,17,0.00,,,0.00,944,weatherlink.com 1.10,2013-07-20 21:28:00,
2013-07-20 14:43:00,62.6,23.0,29.81,West,276,3.0,7.0,22,0.00,,,0.00,926,weatherlink.com 1.10,2013-07-20 21:43:00,
2013-07-20 14:58:00,59.5,0.0,29.80,WSW,258,7.0,10.0,9,0.00,,,0.00,898,weatherlink.com 1.10,2013-07-20 21:58:00,
2013-07-20 15:13:00,62.5,-14.0,29.80,SSW,213,4.0,8.0,4,0.00,,,0.00,879,weatherlink.com 1.10,2013-07-20 22:13:00,
2013-07-20 15:28:00,65.1,11.0,29.79,SE,137,2.0,7.0,12,0.00,,,0.00,853,weatherlink.com 1.10,2013-07-20 22:28:00,
2013-07-20 15:43:00,68.0,31.0,29.78,SSE,158,2.0,8.0,25,0.00,,,0.00,823,weatherlink.com 1.10,2013-07-20 22:43:00,
2013-07-20 15:58:00,68.3,39.0,29.78,SSW,211,6.0,7.0,34,0.00,,,0.00,789,weatherlink.com 1.10,2013-07-20 22:58:00,
2013-07-20 16:13:00,64.3,31.0,29.77,WSW,241,3.0,7.0,29,0.00,,,0.00,752,weatherlink.com 1.10,2013-07-20 23:13:00,
2013-07-20 16:43:00,62.4,11.0,29.76,West,261,0.0,6.0,13,0.00,,,0.00,670,weatherlink.com 1.10,2013-07-20 23:43:00,
2013-07-20 16:59:00,62.2,15.0,29.76,SW,230,2.0,6.0,16,0.00,,,0.00,626,weatherlink.com 1.10,2013-07-20 23:59:00,
2013-07-20 17:14:00,63.7,10.0,29.75,South,190,0.0,5.0,12,0.00,,,0.00,584,weatherlink.com 1.10,2013-07-21 00:14:00,
2013-07-20 17:29:00,67.5,35.0,29.75,South,170,2.0,7.0,30,0.00,,,0.00,538,weatherlink.com 1.10,2013-07-21 00:29:00,
2013-07-20 17:59:00,68.6,40.0,29.74,South,190,0.0,8.0,36,0.00,,,0.00,441,weatherlink.com 1.10,2013-07-21 00:59:00,
2013-07-20 18:14:00,67.8,39.0,29.74,SSE,153,4.0,7.0,35,0.00,,,0.00,394,weatherlink.com 1.10,2013-07-21 01:14:00,
2013-07-20 18:29:00,67.9,40.0,29.74,South,173,0.0,6.0,36,0.00,,,0.00,341,weatherlink.com 1.10,2013-07-21 01:29:00,
2013-07-20 18:44:00,67.2,39.0,29.74,SSE,155,2.0,5.0,35,0.00,,,0.00,290,weatherlink.com 1.10,2013-07-21 01:44:00,
2013-07-20 18:59:00,66.9,37.0,29.73,SE,127,3.0,5.0,33,0.00,,,0.00,239,weatherlink.com 1.10,2013-07-21 01:59:00,
2013-07-20 19:14:00,65.2,34.0,29.73,ESE,122,2.0,10.0,31,0.00,,,0.00,192,weatherlink.com 1.10,2013-07-21 02:14:00,
2013-07-20 19:29:00,64.7,29.0,29.73,SE,142,3.0,5.0,26,0.00,,,0.00,135,weatherlink.com 1.10,2013-07-21 02:29:00,
2013-07-20 19:44:00,64.1,30.0,29.74,South,169,2.0,4.0,28,0.00,,,0.00,84,weatherlink.com 1.10,2013-07-21 02:44:00,
2013-07-20 20:14:00,60.0,13.0,29.74,East,94,0.0,7.0,16,0.00,,,0.00,19,weatherlink.com 1.10,2013-07-21 03:14:00,
2013-07-20 20:30:00,58.8,4.0,29.73,ESE,106,0.0,0.0,11,0.00,,,0.00,9,weatherlink.com 1.10,2013-07-21 03:30:00,
2013-07-20 20:45:00,57.9,1.0,29.74,ESE,106,0.0,1.0,10,0.00,,,0.00,0,weatherlink.com 1.10,2013-07-21 03:45:00,
2013-07-20 21:00:00,57.1,-7.0,29.74,ESE,106,0.0,1.0,7,0.00,,,0.00,0,weatherlink.com 1.10,2013-07-21 04:00:00,
2013-07-20 21:15:00,55.6,-15.0,29.75,ESE,106,0.0,2.0,5,0.00,,,0.00,0,weatherlink.com 1.10,2013-07-21 04:15:00,
2013-07-20 21:30:00,55.1,-45.0,29.76,ESE,106,0.0,1.0,1,0.00,,,0.00,0,weatherlink.com 1.10,2013-07-21 04:30:00,
2013-07-20 21:45:00,54.6,-99.9,29.77,ESE,106,0.0,0.0,0,0.00,,,0.00,0,weatherlink.com 1.10,2013-07-21 04:45:00,
2013-07-20 22:00:00,54.0,-99.9,29.77,ESE,106,0.0,0.0,0,0.00,,,0.00,0,weatherlink.com 1.10,2013-07-21 05:00:00,
2013-07-20 22:15:00,53.2,-99.9,29.78,ESE,108,2.0,3.0,0,0.00,,,0.00,0,weatherlink.com 1.10,2013-07-21 05:15:00,
2013-07-20 22:30:00,53.8,-99.9,29.78,ESE,123,7.0,7.0,0,0.00,,,0.00,0,weatherlink.com 1.10,2013-07-21 05:30:00,
2013-07-20 22:45:00,54.1,-99.9,29.78,SE,131,5.0,10.0,0,0.00,,,0.00,0,weatherlink.com 1.10,2013-07-21 05:45:00,
2013-07-20 23:00:00,54.3,-99.9,29.78,ESE,112,2.0,9.0,0,0.00,,,0.00,0,weatherlink.com 1.10,2013-07-21 06:00:00,
2013-07-20 23:15:00,54.3,-99.9,29.78,SSE,150,0.0,4.0,0,0.00,,,0.00,0,weatherlink.com 1.10,2013-07-21 06:15:00,
2013-07-20 23:30:00,54.4,-99.9,29.79,SE,128,7.0,10.0,0,0.00,,,0.00,0,weatherlink.com 1.10,2013-07-21 06:30:00,
2013-07-20 23:45:00,54.4,-99.9,29.79,SSE,155,4.0,6.0,0,0.00,,,0.00,0,weatherlink.com 1.10,2013-07-21 06:45:00,